createdAt,value
2018-07-03T00:01:09.991Z,41.60
2018-07-03T00:03:44.991Z,41.70
2018-07-03T00:06:20.200Z,41.70
2018-07-03T00:08:55.196Z,41.80
2018-07-03T00:11:30.279Z,41.80
2018-07-03T00:14:05.560Z,41.90
2018-07-03T00:16:45.952Z,42.00
2018-07-03T00:19:21.031Z,42.00
2018-07-03T00:21:55.965Z,42.00
2018-07-03T00:24:30.987Z,42.20
2018-07-03T00:27:06.428Z,42.20
2018-07-03T00:29:41.551Z,42.20
2018-07-03T00:32:16.604Z,42.40
2018-07-03T00:34:51.784Z,42.30
2018-07-03T00:37:26.728Z,42.40
2018-07-03T00:40:01.775Z,42.50
2018-07-03T00:42:36.888Z,42.60
2018-07-03T00:45:11.798Z,42.50
2018-07-03T00:47:46.722Z,42.70
2018-07-03T00:50:21.927Z,42.70
2018-07-03T00:52:57.132Z,42.70
2018-07-03T00:55:32.214Z,42.80
2018-07-03T00:58:07.371Z,42.90
2018-07-03T01:00:42.435Z,42.90
2018-07-03T01:03:17.563Z,42.90
2018-07-03T01:05:52.846Z,43.00
2018-07-03T01:08:27.837Z,43.00
2018-07-03T01:11:02.835Z,43.10
2018-07-03T01:13:38.548Z,43.10
2018-07-03T01:16:13.701Z,43.20
2018-07-03T01:18:48.744Z,43.20
2018-07-03T01:21:23.826Z,43.30
2018-07-03T01:23:58.905Z,43.30
2018-07-03T01:26:33.861Z,43.30
2018-07-03T01:29:08.812Z,43.40
2018-07-03T01:31:43.872Z,43.40
2018-07-03T01:34:18.926Z,43.50
2018-07-03T01:36:54.072Z,43.50
2018-07-03T01:39:29.683Z,43.60
2018-07-03T01:42:04.712Z,43.60
2018-07-03T01:44:39.707Z,43.60
2018-07-03T01:47:14.824Z,43.70
2018-07-03T01:49:49.902Z,43.70
2018-07-03T01:52:24.928Z,43.70
2018-07-03T01:54:59.971Z,43.80
2018-07-03T01:57:34.900Z,43.70
2018-07-03T02:00:10.015Z,43.80
2018-07-03T02:02:45.117Z,43.90
2018-07-03T02:05:20.203Z,43.90
2018-07-03T02:07:56.062Z,44.00
2018-07-03T02:10:30.991Z,44.00
2018-07-03T02:13:06.244Z,44.10
2018-07-03T02:15:41.195Z,44.10
2018-07-03T02:18:16.268Z,44.10
2018-07-03T02:20:51.268Z,44.20
2018-07-03T02:23:26.211Z,44.30
2018-07-03T02:26:01.399Z,44.30
2018-07-03T02:28:36.531Z,44.30
2018-07-03T02:31:11.579Z,44.30
2018-07-03T02:33:46.644Z,44.30
2018-07-03T02:36:21.795Z,44.40
2018-07-03T02:38:56.780Z,44.40
2018-07-03T02:41:31.805Z,44.40
2018-07-03T02:44:06.784Z,44.50
2018-07-03T02:46:41.842Z,44.50
2018-07-03T02:49:16.831Z,44.60
2018-07-03T02:51:51.988Z,44.40
2018-07-03T02:54:27.068Z,44.70
2018-07-03T02:57:02.633Z,44.70
2018-07-03T02:59:37.804Z,44.70
2018-07-03T03:02:12.743Z,44.70
2018-07-03T03:04:47.860Z,44.80
2018-07-03T03:07:22.893Z,44.90
2018-07-03T03:09:58.164Z,44.90
2018-07-03T03:12:33.316Z,44.90
2018-07-03T03:15:08.360Z,44.30
2018-07-03T03:17:43.304Z,50.50
2018-07-03T03:20:18.427Z,56.60
2018-07-03T03:22:53.608Z,59.50
2018-07-03T03:25:28.643Z,62.20
2018-07-03T03:28:03.596Z,65.10
2018-07-03T03:30:38.788Z,66.10
2018-07-03T03:33:13.920Z,66.90
2018-07-03T03:35:49.119Z,68.20
2018-07-03T03:38:24.176Z,70.90
2018-07-03T03:40:59.157Z,70.50
2018-07-03T03:43:34.150Z,71.30
2018-07-03T03:46:09.096Z,71.80
2018-07-03T03:48:44.151Z,72.90
2018-07-03T03:51:19.331Z,73.80
2018-07-03T03:53:54.383Z,74.50
2018-07-03T03:56:29.308Z,75.30
2018-07-03T03:59:04.343Z,75.50
2018-07-03T04:01:39.427Z,75.40
2018-07-03T04:04:14.546Z,74.40
2018-07-03T04:06:49.672Z,74.00
2018-07-03T04:09:24.784Z,75.10
2018-07-03T04:11:59.924Z,74.00
2018-07-03T04:14:35.053Z,74.40
2018-07-03T04:17:09.963Z,74.70
2018-07-03T04:19:44.936Z,75.30
2018-07-03T04:22:20.140Z,74.70
2018-07-03T04:24:55.241Z,75.70
2018-07-03T04:30:05.460Z,76.70
2018-07-03T04:32:40.483Z,77.20
2018-07-03T04:35:15.596Z,71.90
2018-07-03T04:37:50.622Z,68.30
2018-07-03T04:40:25.539Z,65.40
2018-07-03T04:43:00.467Z,63.50
2018-07-03T04:45:35.592Z,62.20
2018-07-03T04:48:10.577Z,61.20
2018-07-03T04:50:45.572Z,59.90
2018-07-03T04:53:20.733Z,60.60
2018-07-03T04:55:55.904Z,60.30
2018-07-03T05:01:05.559Z,56.60
2018-07-03T05:03:40.976Z,55.00
2018-07-03T05:06:16.025Z,53.80
2018-07-03T05:08:51.075Z,54.90
2018-07-03T05:11:26.143Z,54.10
2018-07-03T05:14:01.332Z,54.60
2018-07-03T05:16:36.615Z,51.40
2018-07-03T05:19:11.653Z,52.40
2018-07-03T05:21:46.730Z,53.70
2018-07-03T05:24:21.607Z,54.40
2018-07-03T05:26:56.943Z,55.60
2018-07-03T05:29:31.975Z,57.10
2018-07-03T05:32:06.972Z,56.70
2018-07-03T05:34:41.937Z,58.80
2018-07-03T05:37:17.011Z,57.80
2018-07-03T05:39:51.995Z,57.60
2018-07-03T05:42:27.121Z,56.80
2018-07-03T05:45:02.148Z,57.80
2018-07-03T05:47:37.091Z,58.40
2018-07-03T05:50:12.155Z,59.70
2018-07-03T05:52:47.240Z,61.50
2018-07-03T05:55:22.176Z,61.30
2018-07-03T05:57:57.287Z,61.60
2018-07-03T06:00:32.383Z,63.10
2018-07-03T06:03:07.487Z,60.90
2018-07-03T06:08:17.217Z,60.00
2018-07-03T06:10:52.353Z,60.10
2018-07-03T06:13:27.475Z,60.50
2018-07-03T06:16:02.710Z,60.70
2018-07-03T06:18:37.715Z,60.60
2018-07-03T06:21:12.804Z,58.40
2018-07-03T06:23:47.900Z,58.00
2018-07-03T06:26:23.088Z,57.30
2018-07-03T06:28:58.257Z,58.30
2018-07-03T06:31:33.328Z,58.00
2018-07-03T06:34:08.509Z,57.90
2018-07-03T06:36:43.708Z,57.70
2018-07-03T06:39:18.828Z,57.90
2018-07-03T06:41:54.316Z,57.60
2018-07-03T06:44:29.236Z,56.90
2018-07-03T06:47:04.387Z,59.20
2018-07-03T06:49:39.360Z,58.10
2018-07-03T06:52:14.500Z,58.80
2018-07-03T06:54:49.467Z,57.90
2018-07-03T06:57:24.408Z,58.10
2018-07-03T06:59:59.486Z,57.50
2018-07-03T07:02:34.543Z,56.00
2018-07-03T07:05:09.660Z,56.20
2018-07-03T07:07:44.707Z,56.40
2018-07-03T07:10:19.903Z,55.70
2018-07-03T07:12:54.878Z,55.30
2018-07-03T07:15:29.997Z,55.20
2018-07-03T07:18:05.153Z,55.90
2018-07-03T07:20:40.537Z,55.70
2018-07-03T07:23:15.576Z,55.50
2018-07-03T07:28:25.527Z,55.10
2018-07-03T07:31:00.771Z,55.50
2018-07-03T07:33:35.892Z,54.60
2018-07-03T07:36:10.856Z,54.70
2018-07-03T07:38:45.961Z,54.20
2018-07-03T07:41:20.964Z,54.90
2018-07-03T07:43:56.068Z,54.50
2018-07-03T07:46:31.155Z,52.90
2018-07-03T07:49:06.640Z,53.80
2018-07-03T07:51:41.843Z,53.60
2018-07-03T07:54:16.869Z,52.80
2018-07-03T07:56:52.576Z,52.90
2018-07-03T07:59:27.636Z,51.20
2018-07-03T08:02:02.719Z,50.40
2018-07-03T08:04:37.818Z,48.70
2018-07-03T08:07:12.879Z,49.40
2018-07-03T08:09:48.051Z,47.00
2018-07-03T08:12:23.224Z,45.70
2018-07-03T08:14:58.367Z,44.40
2018-07-03T08:17:33.292Z,43.70
2018-07-03T08:20:08.450Z,43.50
2018-07-03T08:22:43.611Z,42.30
2018-07-03T08:25:18.644Z,41.80
2018-07-03T08:27:53.547Z,37.40
2018-07-03T08:30:28.640Z,37.10
2018-07-03T08:33:03.751Z,38.10
2018-07-03T08:35:38.872Z,35.40
2018-07-03T08:38:13.912Z,35.40
2018-07-03T08:40:48.870Z,37.70
2018-07-03T08:43:24.052Z,37.70
2018-07-03T08:45:59.104Z,36.80
2018-07-03T08:48:34.173Z,35.20
2018-07-03T08:51:09.169Z,36.30
2018-07-03T08:53:44.173Z,36.70
2018-07-03T08:56:19.120Z,36.60
2018-07-03T08:58:54.781Z,34.00
2018-07-03T09:01:29.848Z,32.50
2018-07-03T09:04:05.168Z,33.70
2018-07-03T09:06:40.301Z,33.90
2018-07-03T09:09:15.384Z,32.70
2018-07-03T09:11:50.348Z,30.70
2018-07-03T09:14:26.359Z,31.60
2018-07-03T09:17:05.688Z,32.20
2018-07-03T09:19:40.659Z,30.10
2018-07-03T09:22:15.792Z,30.40
2018-07-03T09:24:50.867Z,30.10
2018-07-03T09:27:26.021Z,28.70
2018-07-03T09:30:01.105Z,28.40
2018-07-03T09:32:36.327Z,27.60
2018-07-03T09:35:11.430Z,28.40
2018-07-03T09:37:46.505Z,27.90
2018-07-03T09:40:21.605Z,28.00
2018-07-03T09:42:56.537Z,26.50
2018-07-03T09:45:31.595Z,26.20
2018-07-03T09:48:06.725Z,26.60
2018-07-03T09:50:41.696Z,28.00
2018-07-03T09:53:16.691Z,26.30
2018-07-03T09:55:51.776Z,26.50
2018-07-03T09:58:26.945Z,28.00
2018-07-03T10:01:06.432Z,26.60
2018-07-03T10:03:41.519Z,25.10
2018-07-03T10:06:16.642Z,25.80
2018-07-03T10:08:51.656Z,26.90
2018-07-03T10:11:26.716Z,26.80
2018-07-03T10:14:01.856Z,27.30
2018-07-03T10:16:36.989Z,27.30
2018-07-03T10:19:11.976Z,26.00
2018-07-03T10:21:47.060Z,26.60
2018-07-03T10:24:22.220Z,27.40
2018-07-03T10:26:57.434Z,27.20
2018-07-03T10:29:32.418Z,26.90
2018-07-03T10:32:07.392Z,27.30
2018-07-03T10:34:42.391Z,27.50
2018-07-03T10:37:17.399Z,27.20
2018-07-03T10:39:52.389Z,28.20
2018-07-03T10:42:27.411Z,27.30
2018-07-03T10:45:02.433Z,27.10
2018-07-03T10:47:37.587Z,26.80
2018-07-03T10:50:12.552Z,27.30
2018-07-03T10:55:22.111Z,27.30
2018-07-03T10:57:57.256Z,26.20
2018-07-03T11:00:32.344Z,26.60
2018-07-03T11:05:42.287Z,25.60
2018-07-03T11:08:17.244Z,26.40
2018-07-03T11:10:52.189Z,25.10
2018-07-03T11:13:27.238Z,25.70
2018-07-03T11:16:02.351Z,25.90
2018-07-03T11:18:37.361Z,26.30
2018-07-03T11:21:12.437Z,26.00
2018-07-03T11:23:47.621Z,25.70
2018-07-03T11:26:22.671Z,26.90
2018-07-03T11:28:57.704Z,26.10
2018-07-03T11:31:32.808Z,26.90
2018-07-03T11:34:08.079Z,26.60
2018-07-03T11:36:43.101Z,26.80
2018-07-03T11:39:18.151Z,26.60
2018-07-03T11:41:53.403Z,27.20
2018-07-03T11:44:28.423Z,27.30
2018-07-03T11:47:03.428Z,26.20
2018-07-03T11:49:38.548Z,26.80
2018-07-03T11:52:13.644Z,28.60
2018-07-03T11:54:48.800Z,28.80
2018-07-03T11:57:24.102Z,27.50
2018-07-03T11:59:59.510Z,28.10
2018-07-03T12:02:34.567Z,28.90
2018-07-03T12:05:09.648Z,27.90
2018-07-03T12:07:44.827Z,28.20
2018-07-03T12:10:19.846Z,26.40
2018-07-03T12:12:54.973Z,28.40
2018-07-03T12:15:30.049Z,28.90
2018-07-03T12:18:07.379Z,28.90
2018-07-03T12:20:42.488Z,28.70
2018-07-03T12:23:17.553Z,29.00
2018-07-03T12:25:52.484Z,29.30
2018-07-03T12:28:27.571Z,27.80
2018-07-03T12:31:02.696Z,28.90
2018-07-03T12:33:37.707Z,26.30
2018-07-03T12:36:12.868Z,27.90
2018-07-03T12:41:22.631Z,26.40
2018-07-03T12:43:57.958Z,26.90
2018-07-03T12:46:32.917Z,26.80
2018-07-03T12:49:07.888Z,26.50
2018-07-03T12:51:42.871Z,26.80
2018-07-03T12:54:17.854Z,27.10
2018-07-03T12:59:27.636Z,27.10
2018-07-03T13:02:03.636Z,27.30
2018-07-03T13:04:38.739Z,26.50
2018-07-03T13:07:13.720Z,26.30
2018-07-03T13:09:48.819Z,26.70
2018-07-03T13:12:23.908Z,26.90
2018-07-03T13:14:58.979Z,26.00
2018-07-03T13:17:33.979Z,26.80
2018-07-03T13:20:15.244Z,26.80
2018-07-03T13:22:50.190Z,26.60
2018-07-03T13:25:25.250Z,26.70
2018-07-03T13:28:00.361Z,26.70
2018-07-03T13:30:35.676Z,26.50
2018-07-03T13:33:10.700Z,26.20
2018-07-03T13:35:45.624Z,25.90
2018-07-03T13:38:20.599Z,26.40
2018-07-03T13:40:55.716Z,26.60
2018-07-03T13:43:30.769Z,26.00
2018-07-03T13:46:05.844Z,27.40
2018-07-03T13:48:40.904Z,26.80
2018-07-03T13:53:50.688Z,26.40
2018-07-03T13:56:25.750Z,26.50
2018-07-03T13:59:01.810Z,26.00
2018-07-03T14:01:36.783Z,26.50
2018-07-03T14:04:11.820Z,26.30
2018-07-03T14:06:46.980Z,26.70
2018-07-03T14:09:22.112Z,26.30
2018-07-03T14:11:57.211Z,26.60
2018-07-03T14:14:32.172Z,26.20
2018-07-03T14:17:07.276Z,26.30
2018-07-03T14:19:42.223Z,27.50
2018-07-03T14:22:17.252Z,27.20
2018-07-03T14:24:52.384Z,27.10
2018-07-03T14:27:27.526Z,26.50
2018-07-03T14:30:03.344Z,26.50
2018-07-03T14:32:38.384Z,27.30
2018-07-03T14:35:13.356Z,26.90
2018-07-03T14:37:48.480Z,27.70
2018-07-03T14:40:23.412Z,26.50
2018-07-03T14:42:58.432Z,27.20
2018-07-03T14:45:33.544Z,25.70
2018-07-03T14:48:09.147Z,26.30
2018-07-03T14:50:44.256Z,26.40
2018-07-03T14:53:19.428Z,26.00
2018-07-03T14:55:54.476Z,26.00
2018-07-03T14:58:29.615Z,25.90
2018-07-03T15:01:04.719Z,26.50
2018-07-03T15:03:39.772Z,25.80
2018-07-03T15:06:14.927Z,25.00
2018-07-03T15:08:50.346Z,25.10
2018-07-03T15:11:25.532Z,26.00
2018-07-03T15:14:00.635Z,26.20
2018-07-03T15:16:35.597Z,26.20
2018-07-03T15:19:16.180Z,26.00
2018-07-03T15:21:51.110Z,26.00
2018-07-03T15:24:26.128Z,26.30
2018-07-03T15:27:01.265Z,25.60
2018-07-03T15:29:36.188Z,26.50
2018-07-03T15:32:11.252Z,26.20
2018-07-03T15:34:46.220Z,26.10
2018-07-03T15:37:21.332Z,25.10
2018-07-03T15:39:56.310Z,26.10
2018-07-03T15:42:31.384Z,25.50
2018-07-03T15:45:09.857Z,25.60
2018-07-03T15:47:44.920Z,25.20
2018-07-03T15:50:19.928Z,26.00
2018-07-03T15:52:55.008Z,26.50
2018-07-03T15:55:29.932Z,26.30
2018-07-03T15:58:04.928Z,26.40
2018-07-03T16:00:40.064Z,26.50
2018-07-03T16:05:32.419Z,26.40
2018-07-03T16:08:18.880Z,26.00
2018-07-03T16:10:53.999Z,27.30
2018-07-03T16:13:29.028Z,26.00
2018-07-03T16:16:04.210Z,26.50
2018-07-03T16:18:39.380Z,27.10
2018-07-03T16:21:14.491Z,26.80
2018-07-03T16:23:49.656Z,27.50
2018-07-03T16:26:24.760Z,27.80
2018-07-03T16:28:59.865Z,27.60
2018-07-03T16:31:34.948Z,27.80
2018-07-03T16:34:10.015Z,26.80
2018-07-03T16:36:45.197Z,27.30
2018-07-03T16:39:20.211Z,27.60
2018-07-03T16:41:55.296Z,27.90
2018-07-03T16:44:30.384Z,28.10
2018-07-03T16:47:05.640Z,28.40
2018-07-03T16:49:40.712Z,28.60
2018-07-03T16:52:15.675Z,28.90
2018-07-03T16:54:50.776Z,28.60
2018-07-03T16:57:25.843Z,28.50
2018-07-03T17:00:00.936Z,28.10
2018-07-03T17:02:36.054Z,28.80
2018-07-03T17:05:11.071Z,28.80
2018-07-03T17:07:47.184Z,28.80
2018-07-03T17:12:57.131Z,29.20
2018-07-03T17:15:32.208Z,29.20
2018-07-03T17:18:07.298Z,28.80
2018-07-03T17:20:42.458Z,28.20
2018-07-03T17:23:17.463Z,28.00
2018-07-03T17:28:27.436Z,29.20
2018-07-03T17:31:02.665Z,29.40
2018-07-03T17:33:37.580Z,29.90
2018-07-03T17:36:12.880Z,30.00
2018-07-03T17:38:47.980Z,29.90
2018-07-03T17:41:34.434Z,29.80
2018-07-03T17:45:33.475Z,28.90
2018-07-03T17:48:09.481Z,29.50
2018-07-03T17:50:44.528Z,30.00
2018-07-03T17:53:20.128Z,30.40
2018-07-03T17:55:55.511Z,30.40
2018-07-03T18:01:05.180Z,30.50
2018-07-03T18:03:40.227Z,30.80
2018-07-03T18:06:15.231Z,30.70
2018-07-03T18:08:51.149Z,30.60
2018-07-03T18:11:26.164Z,30.40
2018-07-03T18:14:01.302Z,31.20
2018-07-03T18:16:36.405Z,31.00
2018-07-03T18:19:16.844Z,31.20
2018-07-03T18:21:52.044Z,31.20
2018-07-03T18:24:27.011Z,31.50
2018-07-03T18:27:02.420Z,31.70
2018-07-03T18:29:37.548Z,31.50
2018-07-03T18:34:47.125Z,31.50
2018-07-03T18:37:22.072Z,32.20
2018-07-03T18:39:57.063Z,32.90
2018-07-03T18:42:32.143Z,33.50
2018-07-03T18:45:07.305Z,33.90
2018-07-03T18:47:42.243Z,34.40
2018-07-03T18:50:17.199Z,34.80
2018-07-03T18:52:52.380Z,35.30
2018-07-03T18:55:27.318Z,35.90
2018-07-03T18:58:02.432Z,36.20
2018-07-03T19:00:37.552Z,36.80
2018-07-03T19:03:12.655Z,37.20
2018-07-03T19:05:47.685Z,37.60
2018-07-03T19:08:22.649Z,38.20
2018-07-03T19:10:57.719Z,38.20
2018-07-03T19:13:32.844Z,38.60
2018-07-03T19:16:08.167Z,38.60
2018-07-03T19:18:43.132Z,39.30
2018-07-03T19:21:18.263Z,39.40
2018-07-03T19:23:53.492Z,39.60
2018-07-03T19:26:28.538Z,40.00
2018-07-03T19:29:03.563Z,40.30
2018-07-03T19:31:38.512Z,41.40
2018-07-03T19:34:13.543Z,41.60
2018-07-03T19:36:48.544Z,42.20
2018-07-03T19:39:23.652Z,43.20
2018-07-03T19:41:59.098Z,44.10
2018-07-03T19:44:34.079Z,44.80
2018-07-03T19:47:09.104Z,45.30
2018-07-03T19:49:44.230Z,45.60
2018-07-03T19:52:19.385Z,45.50
2018-07-03T19:54:54.331Z,46.30
2018-07-03T19:57:29.504Z,46.70
2018-07-03T20:03:02.060Z,47.30
2018-07-03T20:05:37.576Z,45.90
2018-07-03T20:08:12.696Z,45.00
2018-07-03T20:10:47.668Z,44.50
2018-07-03T20:13:22.687Z,44.20
2018-07-03T20:15:57.777Z,43.90
2018-07-03T20:18:32.859Z,44.10
2018-07-03T20:21:08.006Z,43.90
2018-07-03T20:23:42.972Z,44.40
2018-07-03T20:26:17.988Z,43.60
2018-07-03T20:28:53.115Z,44.20
2018-07-03T20:31:28.243Z,44.00
2018-07-03T20:36:37.992Z,43.30
2018-07-03T20:39:13.168Z,43.70
2018-07-03T20:41:48.316Z,43.40
2018-07-03T20:44:23.437Z,43.30
2018-07-03T20:46:58.380Z,43.30
2018-07-03T20:49:33.445Z,44.50
2018-07-03T20:52:08.459Z,44.10
2018-07-03T20:54:43.436Z,44.30
2018-07-03T20:57:18.524Z,44.10
2018-07-03T20:59:53.613Z,44.10
2018-07-03T21:02:28.689Z,44.20
2018-07-03T21:05:03.820Z,45.90
2018-07-03T21:07:38.920Z,48.50
2018-07-03T21:10:14.013Z,47.20
2018-07-03T21:12:49.201Z,46.60
2018-07-03T21:15:24.375Z,47.40
2018-07-03T21:17:59.350Z,47.60
2018-07-03T21:20:34.495Z,46.50
2018-07-03T21:23:09.476Z,45.70
2018-07-03T21:25:44.429Z,48.80
2018-07-03T21:28:19.616Z,46.40
2018-07-03T21:30:55.728Z,45.20
2018-07-03T21:33:30.792Z,45.00
2018-07-03T21:36:05.776Z,44.80
2018-07-03T21:38:40.906Z,44.90
2018-07-03T21:41:15.971Z,44.80
2018-07-03T21:43:50.931Z,44.70
2018-07-03T21:46:26.079Z,44.60
2018-07-03T21:49:01.072Z,44.60
2018-07-03T21:51:36.139Z,44.60
2018-07-03T21:54:11.176Z,44.60
2018-07-03T21:56:46.096Z,44.60
2018-07-03T21:59:21.088Z,44.70
2018-07-03T22:01:56.262Z,44.80
2018-07-03T22:04:31.299Z,44.90
2018-07-03T22:07:06.418Z,45.00
2018-07-03T22:09:41.474Z,45.00
2018-07-03T22:12:16.420Z,45.10
2018-07-03T22:14:51.496Z,45.10
2018-07-03T22:17:26.508Z,45.20
2018-07-03T22:20:01.506Z,45.20
2018-07-03T22:22:36.612Z,45.10
2018-07-03T22:25:11.621Z,45.20
2018-07-03T22:27:46.715Z,45.40
2018-07-03T22:30:21.644Z,45.40
2018-07-03T22:32:56.792Z,45.40
2018-07-03T22:35:31.896Z,45.40
2018-07-03T22:38:07.162Z,45.50
2018-07-03T22:40:42.103Z,45.50
2018-07-03T22:43:17.207Z,45.60
2018-07-03T22:45:52.315Z,45.60
2018-07-03T22:48:27.329Z,45.70
2018-07-03T22:51:02.271Z,45.70
2018-07-03T22:53:37.515Z,45.70
2018-07-03T22:56:12.545Z,45.80
2018-07-03T22:58:47.682Z,45.80
2018-07-03T23:01:22.836Z,45.80
2018-07-03T23:03:57.899Z,45.90
2018-07-03T23:06:33.042Z,45.90
2018-07-03T23:09:08.243Z,46.00
2018-07-03T23:11:43.316Z,46.00
2018-07-03T23:14:18.399Z,46.10
2018-07-03T23:16:53.468Z,46.10
2018-07-03T23:19:28.496Z,46.10
2018-07-03T23:22:03.559Z,46.20
2018-07-03T23:24:38.499Z,46.40
2018-07-03T23:27:14.500Z,46.20
2018-07-03T23:29:49.453Z,46.20
2018-07-03T23:32:24.512Z,46.30
2018-07-03T23:34:59.601Z,46.30
2018-07-03T23:37:34.688Z,46.40
2018-07-03T23:40:09.641Z,46.40
2018-07-03T23:42:44.772Z,46.40
2018-07-03T23:45:19.905Z,46.40
2018-07-03T23:48:06.421Z,46.50
2018-07-03T23:50:59.199Z,46.60
2018-07-03T23:53:51.909Z,46.70
2018-07-03T23:56:44.424Z,47.40
2018-07-03T23:59:37.048Z,46.90
